sensor_id;sensor_type;location;lat;lon;timestamp;temperature;humidity
70550;DHT22;58101;48.658;2.328;2022-08-25T00:01:38;22.70;78.80
70550;DHT22;58101;48.658;2.328;2022-08-25T00:04:08;22.70;78.70
70550;DHT22;58101;48.658;2.328;2022-08-25T00:06:36;22.70;78.90
70550;DHT22;58101;48.658;2.328;2022-08-25T00:09:03;22.60;79.40
70550;DHT22;58101;48.658;2.328;2022-08-25T00:11:32;22.60;79.50
70550;DHT22;58101;48.658;2.328;2022-08-25T00:14:02;22.60;79.40
70550;DHT22;58101;48.658;2.328;2022-08-25T00:16:29;22.60;79.20
70550;DHT22;58101;48.658;2.328;2022-08-25T00:19:02;22.50;79.70
70550;DHT22;58101;48.658;2.328;2022-08-25T00:21:28;22.50;80.00
70550;DHT22;58101;48.658;2.328;2022-08-25T00:23:57;22.50;80.10
70550;DHT22;58101;48.658;2.328;2022-08-25T00:26:23;22.40;80.30
70550;DHT22;58101;48.658;2.328;2022-08-25T00:28:49;22.40;80.60
70550;DHT22;58101;48.658;2.328;2022-08-25T00:31:17;22.40;80.80
70550;DHT22;58101;48.658;2.328;2022-08-25T00:33:44;22.30;81.30
70550;DHT22;58101;48.658;2.328;2022-08-25T00:36:10;22.30;81.60
70550;DHT22;58101;48.658;2.328;2022-08-25T00:38:37;22.30;82.10
70550;DHT22;58101;48.658;2.328;2022-08-25T00:41:03;22.20;82.00
70550;DHT22;58101;48.658;2.328;2022-08-25T00:43:35;22.30;82.50
70550;DHT22;58101;48.658;2.328;2022-08-25T00:46:02;22.20;83.10
70550;DHT22;58101;48.658;2.328;2022-08-25T00:48:28;22.20;83.70
70550;DHT22;58101;48.658;2.328;2022-08-25T00:50:54;22.10;83.50
70550;DHT22;58101;48.658;2.328;2022-08-25T00:53:20;22.10;83.30
70550;DHT22;58101;48.658;2.328;2022-08-25T00:55:46;22.10;83.80
70550;DHT22;58101;48.658;2.328;2022-08-25T00:58:19;22.00;83.80
70550;DHT22;58101;48.658;2.328;2022-08-25T01:00:48;22.00;83.80
70550;DHT22;58101;48.658;2.328;2022-08-25T01:03:16;22.00;84.20
70550;DHT22;58101;48.658;2.328;2022-08-25T01:05:44;22.00;84.90
70550;DHT22;58101;48.658;2.328;2022-08-25T01:08:10;22.00;85.50
70550;DHT22;58101;48.658;2.328;2022-08-25T01:10:37;22.00;85.60
70550;DHT22;58101;48.658;2.328;2022-08-25T01:13:13;21.90;86.20
70550;DHT22;58101;48.658;2.328;2022-08-25T01:15:43;21.90;86.20
70550;DHT22;58101;48.658;2.328;2022-08-25T01:18:09;21.90;87.00
70550;DHT22;58101;48.658;2.328;2022-08-25T01:20:36;21.90;86.60
70550;DHT22;58101;48.658;2.328;2022-08-25T01:23:02;21.90;86.60
70550;DHT22;58101;48.658;2.328;2022-08-25T01:25:52;21.80;87.00
70550;DHT22;58101;48.658;2.328;2022-08-25T01:28:21;21.80;87.90
70550;DHT22;58101;48.658;2.328;2022-08-25T01:30:47;21.80;87.90
70550;DHT22;58101;48.658;2.328;2022-08-25T01:33:14;21.70;88.20
70550;DHT22;58101;48.658;2.328;2022-08-25T01:35:42;21.70;88.20
70550;DHT22;58101;48.658;2.328;2022-08-25T01:38:08;21.70;88.60
70550;DHT22;58101;48.658;2.328;2022-08-25T01:40:35;21.70;89.10
70550;DHT22;58101;48.658;2.328;2022-08-25T01:45:36;21.60;90.10
70550;DHT22;58101;48.658;2.328;2022-08-25T01:48:03;21.60;90.20
70550;DHT22;58101;48.658;2.328;2022-08-25T01:50:29;21.50;90.40
70550;DHT22;58101;48.658;2.328;2022-08-25T01:52:59;21.50;90.50
70550;DHT22;58101;48.658;2.328;2022-08-25T01:55:27;21.50;90.70
70550;DHT22;58101;48.658;2.328;2022-08-25T01:57:53;21.40;91.20
70550;DHT22;58101;48.658;2.328;2022-08-25T02:00:19;21.40;90.90
70550;DHT22;58101;48.658;2.328;2022-08-25T02:02:45;21.40;91.20
70550;DHT22;58101;48.658;2.328;2022-08-25T02:05:12;21.40;91.40
70550;DHT22;58101;48.658;2.328;2022-08-25T02:07:39;21.30;91.70
70550;DHT22;58101;48.658;2.328;2022-08-25T02:10:07;21.30;91.80
70550;DHT22;58101;48.658;2.328;2022-08-25T02:12:33;21.30;92.10
70550;DHT22;58101;48.658;2.328;2022-08-25T02:15:00;21.20;92.20
70550;DHT22;58101;48.658;2.328;2022-08-25T02:17:27;21.20;92.50
70550;DHT22;58101;48.658;2.328;2022-08-25T02:19:53;21.10;92.70
70550;DHT22;58101;48.658;2.328;2022-08-25T02:22:21;21.10;92.80
70550;DHT22;58101;48.658;2.328;2022-08-25T02:24:47;21.10;93.10
70550;DHT22;58101;48.658;2.328;2022-08-25T02:27:13;21.10;93.30
70550;DHT22;58101;48.658;2.328;2022-08-25T02:29:39;21.00;93.50
70550;DHT22;58101;48.658;2.328;2022-08-25T02:32:04;21.00;93.70
70550;DHT22;58101;48.658;2.328;2022-08-25T02:34:30;21.00;93.60
70550;DHT22;58101;48.658;2.328;2022-08-25T02:36:56;20.90;93.80
70550;DHT22;58101;48.658;2.328;2022-08-25T02:39:22;20.90;93.90
70550;DHT22;58101;48.658;2.328;2022-08-25T02:41:48;20.90;93.90
70550;DHT22;58101;48.658;2.328;2022-08-25T02:44:14;20.90;94.10
70550;DHT22;58101;48.658;2.328;2022-08-25T02:46:40;20.90;94.10
70550;DHT22;58101;48.658;2.328;2022-08-25T02:49:06;20.90;94.20
70550;DHT22;58101;48.658;2.328;2022-08-25T02:51:32;20.90;94.90
70550;DHT22;58101;48.658;2.328;2022-08-25T02:54:00;20.80;95.00
70550;DHT22;58101;48.658;2.328;2022-08-25T02:56:27;20.80;95.10
70550;DHT22;58101;48.658;2.328;2022-08-25T02:58:54;20.70;95.00
70550;DHT22;58101;48.658;2.328;2022-08-25T03:01:20;20.70;95.00
70550;DHT22;58101;48.658;2.328;2022-08-25T03:03:47;20.70;95.30
70550;DHT22;58101;48.658;2.328;2022-08-25T03:06:16;20.70;95.30
70550;DHT22;58101;48.658;2.328;2022-08-25T03:08:43;20.60;95.10
70550;DHT22;58101;48.658;2.328;2022-08-25T03:11:08;20.60;95.60
70550;DHT22;58101;48.658;2.328;2022-08-25T03:13:34;20.60;95.70
70550;DHT22;58101;48.658;2.328;2022-08-25T03:16:02;20.60;96.00
70550;DHT22;58101;48.658;2.328;2022-08-25T03:18:28;20.50;96.00
70550;DHT22;58101;48.658;2.328;2022-08-25T03:20:54;20.50;96.10
70550;DHT22;58101;48.658;2.328;2022-08-25T03:23:20;20.50;96.80
70550;DHT22;58101;48.658;2.328;2022-08-25T03:25:45;20.40;96.90
70550;DHT22;58101;48.658;2.328;2022-08-25T03:28:30;20.40;96.80
70550;DHT22;58101;48.658;2.328;2022-08-25T03:30:58;20.40;97.00
70550;DHT22;58101;48.658;2.328;2022-08-25T03:33:28;20.30;96.80
70550;DHT22;58101;48.658;2.328;2022-08-25T03:35:54;20.30;96.90
70550;DHT22;58101;48.658;2.328;2022-08-25T03:38:21;20.30;97.10
70550;DHT22;58101;48.658;2.328;2022-08-25T03:40:47;20.30;97.40
70550;DHT22;58101;48.658;2.328;2022-08-25T03:43:13;20.30;97.40
70550;DHT22;58101;48.658;2.328;2022-08-25T03:45:41;20.30;97.40
70550;DHT22;58101;48.658;2.328;2022-08-25T03:48:07;20.30;97.60
70550;DHT22;58101;48.658;2.328;2022-08-25T03:50:33;20.20;97.60
70550;DHT22;58101;48.658;2.328;2022-08-25T03:52:59;20.20;97.70
70550;DHT22;58101;48.658;2.328;2022-08-25T03:55:25;20.20;97.80
70550;DHT22;58101;48.658;2.328;2022-08-25T03:57:52;20.20;98.20
70550;DHT22;58101;48.658;2.328;2022-08-25T04:00:20;20.10;98.10
70550;DHT22;58101;48.658;2.328;2022-08-25T04:02:46;20.10;98.10
70550;DHT22;58101;48.658;2.328;2022-08-25T04:05:12;20.10;98.20
70550;DHT22;58101;48.658;2.328;2022-08-25T04:07:38;20.00;98.20
70550;DHT22;58101;48.658;2.328;2022-08-25T04:10:08;20.00;98.50
70550;DHT22;58101;48.658;2.328;2022-08-25T04:12:34;20.00;98.40
70550;DHT22;58101;48.658;2.328;2022-08-25T04:15:01;20.00;98.60
70550;DHT22;58101;48.658;2.328;2022-08-25T04:17:26;19.90;98.80
70550;DHT22;58101;48.658;2.328;2022-08-25T04:19:52;20.00;98.80
70550;DHT22;58101;48.658;2.328;2022-08-25T04:22:18;19.90;98.80
70550;DHT22;58101;48.658;2.328;2022-08-25T04:24:44;19.90;98.80
70550;DHT22;58101;48.658;2.328;2022-08-25T04:27:09;19.90;99.20
70550;DHT22;58101;48.658;2.328;2022-08-25T04:29:35;19.90;99.30
70550;DHT22;58101;48.658;2.328;2022-08-25T04:32:01;19.80;99.10
70550;DHT22;58101;48.658;2.328;2022-08-25T04:34:27;19.80;99.00
70550;DHT22;58101;48.658;2.328;2022-08-25T04:36:53;19.80;99.10
70550;DHT22;58101;48.658;2.328;2022-08-25T04:39:20;19.80;99.10
70550;DHT22;58101;48.658;2.328;2022-08-25T04:41:46;19.80;99.00
70550;DHT22;58101;48.658;2.328;2022-08-25T04:44:12;19.90;98.80
70550;DHT22;58101;48.658;2.328;2022-08-25T04:46:37;19.80;98.60
70550;DHT22;58101;48.658;2.328;2022-08-25T04:49:04;19.90;98.90
70550;DHT22;58101;48.658;2.328;2022-08-25T04:51:38;19.90;98.70
70550;DHT22;58101;48.658;2.328;2022-08-25T04:54:08;19.90;99.00
70550;DHT22;58101;48.658;2.328;2022-08-25T04:56:35;19.90;98.60
70550;DHT22;58101;48.658;2.328;2022-08-25T04:59:01;19.80;98.50
70550;DHT22;58101;48.658;2.328;2022-08-25T05:01:27;19.80;98.90
70550;DHT22;58101;48.658;2.328;2022-08-25T05:03:58;19.80;98.60
70550;DHT22;58101;48.658;2.328;2022-08-25T05:06:25;19.80;98.70
70550;DHT22;58101;48.658;2.328;2022-08-25T05:08:51;19.80;98.80
70550;DHT22;58101;48.658;2.328;2022-08-25T05:11:17;19.80;98.70
70550;DHT22;58101;48.658;2.328;2022-08-25T05:13:48;19.80;99.00
70550;DHT22;58101;48.658;2.328;2022-08-25T05:16:15;19.80;99.20
70550;DHT22;58101;48.658;2.328;2022-08-25T05:18:42;19.80;99.60
70550;DHT22;58101;48.658;2.328;2022-08-25T05:21:11;19.80;99.40
70550;DHT22;58101;48.658;2.328;2022-08-25T05:23:38;19.70;99.30
70550;DHT22;58101;48.658;2.328;2022-08-25T05:26:10;19.70;99.40
70550;DHT22;58101;48.658;2.328;2022-08-25T05:28:37;19.70;99.60
70550;DHT22;58101;48.658;2.328;2022-08-25T05:31:05;19.70;99.90
70550;DHT22;58101;48.658;2.328;2022-08-25T05:33:33;19.70;99.80
70550;DHT22;58101;48.658;2.328;2022-08-25T05:35:59;19.70;99.80
70550;DHT22;58101;48.658;2.328;2022-08-25T05:38:25;19.70;99.90
70550;DHT22;58101;48.658;2.328;2022-08-25T05:41:13;19.80;99.90
70550;DHT22;58101;48.658;2.328;2022-08-25T05:43:41;19.80;99.90
70550;DHT22;58101;48.658;2.328;2022-08-25T05:46:08;19.80;99.90
70550;DHT22;58101;48.658;2.328;2022-08-25T05:48:35;19.90;99.90
70550;DHT22;58101;48.658;2.328;2022-08-25T05:51:01;19.90;99.90
70550;DHT22;58101;48.658;2.328;2022-08-25T05:53:28;20.00;99.90
70550;DHT22;58101;48.658;2.328;2022-08-25T05:55:55;20.00;99.80
70550;DHT22;58101;48.658;2.328;2022-08-25T05:58:22;20.00;99.70
70550;DHT22;58101;48.658;2.328;2022-08-25T06:00:49;20.10;99.70
70550;DHT22;58101;48.658;2.328;2022-08-25T06:03:16;20.20;99.30
70550;DHT22;58101;48.658;2.328;2022-08-25T06:05:42;20.20;99.00
70550;DHT22;58101;48.658;2.328;2022-08-25T06:08:07;20.30;98.50
70550;DHT22;58101;48.658;2.328;2022-08-25T06:10:34;20.30;98.50
70550;DHT22;58101;48.658;2.328;2022-08-25T06:12:59;20.40;98.30
70550;DHT22;58101;48.658;2.328;2022-08-25T06:15:26;20.50;98.10
70550;DHT22;58101;48.658;2.328;2022-08-25T06:17:52;20.60;97.20
70550;DHT22;58101;48.658;2.328;2022-08-25T06:20:19;20.70;96.80
70550;DHT22;58101;48.658;2.328;2022-08-25T06:22:46;20.80;96.60
70550;DHT22;58101;48.658;2.328;2022-08-25T06:25:14;20.90;95.70
70550;DHT22;58101;48.658;2.328;2022-08-25T06:27:40;21.10;94.80
70550;DHT22;58101;48.658;2.328;2022-08-25T06:30:08;21.20;94.20
70550;DHT22;58101;48.658;2.328;2022-08-25T06:32:37;21.30;93.20
70550;DHT22;58101;48.658;2.328;2022-08-25T06:35:05;21.40;92.40
70550;DHT22;58101;48.658;2.328;2022-08-25T06:37:33;21.70;90.80
70550;DHT22;58101;48.658;2.328;2022-08-25T06:39:59;21.60;90.20
70550;DHT22;58101;48.658;2.328;2022-08-25T06:42:25;21.80;88.40
70550;DHT22;58101;48.658;2.328;2022-08-25T06:44:51;21.90;84.50
70550;DHT22;58101;48.658;2.328;2022-08-25T06:47:17;22.10;83.50
70550;DHT22;58101;48.658;2.328;2022-08-25T06:49:43;22.20;77.30
70550;DHT22;58101;48.658;2.328;2022-08-25T06:52:10;22.30;75.40
70550;DHT22;58101;48.658;2.328;2022-08-25T06:54:35;22.40;73.00
70550;DHT22;58101;48.658;2.328;2022-08-25T06:57:02;22.50;69.20
70550;DHT22;58101;48.658;2.328;2022-08-25T06:59:28;22.60;69.10
70550;DHT22;58101;48.658;2.328;2022-08-25T07:01:53;22.70;66.50
70550;DHT22;58101;48.658;2.328;2022-08-25T07:04:19;22.80;67.40
70550;DHT22;58101;48.658;2.328;2022-08-25T07:06:45;22.90;66.80
70550;DHT22;58101;48.658;2.328;2022-08-25T07:09:12;23.00;65.20
70550;DHT22;58101;48.658;2.328;2022-08-25T07:11:39;23.20;65.60
70550;DHT22;58101;48.658;2.328;2022-08-25T07:14:07;23.30;65.20
70550;DHT22;58101;48.658;2.328;2022-08-25T07:16:34;23.40;65.00
70550;DHT22;58101;48.658;2.328;2022-08-25T07:19:04;23.60;64.70
70550;DHT22;58101;48.658;2.328;2022-08-25T07:21:32;23.70;64.40
70550;DHT22;58101;48.658;2.328;2022-08-25T07:23:58;23.80;64.50
70550;DHT22;58101;48.658;2.328;2022-08-25T07:26:29;23.90;65.90
70550;DHT22;58101;48.658;2.328;2022-08-25T07:28:56;23.90;66.10
70550;DHT22;58101;48.658;2.328;2022-08-25T07:31:22;24.00;66.20
70550;DHT22;58101;48.658;2.328;2022-08-25T07:33:48;24.10;65.40
70550;DHT22;58101;48.658;2.328;2022-08-25T07:36:32;24.10;65.30
70550;DHT22;58101;48.658;2.328;2022-08-25T07:38:59;24.20;64.70
70550;DHT22;58101;48.658;2.328;2022-08-25T07:41:25;24.30;65.70
70550;DHT22;58101;48.658;2.328;2022-08-25T07:43:51;24.40;65.10
70550;DHT22;58101;48.658;2.328;2022-08-25T07:46:17;24.50;63.70
70550;DHT22;58101;48.658;2.328;2022-08-25T07:48:43;24.60;63.00
70550;DHT22;58101;48.658;2.328;2022-08-25T07:51:10;24.80;61.80
70550;DHT22;58101;48.658;2.328;2022-08-25T07:53:37;24.90;61.70
70550;DHT22;58101;48.658;2.328;2022-08-25T07:56:11;25.00;61.00
70550;DHT22;58101;48.658;2.328;2022-08-25T07:58:38;25.10;58.60
70550;DHT22;58101;48.658;2.328;2022-08-25T08:01:04;25.30;58.40
70550;DHT22;58101;48.658;2.328;2022-08-25T08:03:30;25.40;58.40
70550;DHT22;58101;48.658;2.328;2022-08-25T08:05:56;25.50;58.70
70550;DHT22;58101;48.658;2.328;2022-08-25T08:08:22;25.70;57.60
70550;DHT22;58101;48.658;2.328;2022-08-25T08:10:47;25.80;58.20
70550;DHT22;58101;48.658;2.328;2022-08-25T08:13:13;26.00;58.00
70550;DHT22;58101;48.658;2.328;2022-08-25T08:15:42;26.10;56.20
70550;DHT22;58101;48.658;2.328;2022-08-25T08:18:09;26.30;54.30
70550;DHT22;58101;48.658;2.328;2022-08-25T08:20:35;26.40;54.80
70550;DHT22;58101;48.658;2.328;2022-08-25T08:23:00;26.60;55.20
70550;DHT22;58101;48.658;2.328;2022-08-25T08:25:26;26.60;54.90
70550;DHT22;58101;48.658;2.328;2022-08-25T08:27:52;26.60;55.40
70550;DHT22;58101;48.658;2.328;2022-08-25T08:30:22;26.60;55.50
70550;DHT22;58101;48.658;2.328;2022-08-25T08:32:48;26.70;55.00
70550;DHT22;58101;48.658;2.328;2022-08-25T08:35:15;26.80;56.10
70550;DHT22;58101;48.658;2.328;2022-08-25T08:37:46;27.00;56.40
70550;DHT22;58101;48.658;2.328;2022-08-25T08:40:14;27.20;56.30
70550;DHT22;58101;48.658;2.328;2022-08-25T08:43:20;27.40;50.90
70550;DHT22;58101;48.658;2.328;2022-08-25T08:45:49;27.70;50.40
70550;DHT22;58101;48.658;2.328;2022-08-25T08:48:50;28.10;50.20
70550;DHT22;58101;48.658;2.328;2022-08-25T08:51:23;28.70;49.70
70550;DHT22;58101;48.658;2.328;2022-08-25T08:56:20;31.00;46.10
70550;DHT22;58101;48.658;2.328;2022-08-25T08:59:23;32.40;44.80
70550;DHT22;58101;48.658;2.328;2022-08-25T09:01:56;33.80;39.40
70550;DHT22;58101;48.658;2.328;2022-08-25T09:04:47;35.00;38.60
70550;DHT22;58101;48.658;2.328;2022-08-25T09:07:19;36.20;36.20
70550;DHT22;58101;48.658;2.328;2022-08-25T09:09:46;37.00;34.00
70550;DHT22;58101;48.658;2.328;2022-08-25T09:20:45;39.80;27.80
70550;DHT22;58101;48.658;2.328;2022-08-25T09:24:01;40.60;27.00
70550;DHT22;58101;48.658;2.328;2022-08-25T09:26:16;40.80;24.40
70550;DHT22;58101;48.658;2.328;2022-08-25T09:29:06;41.40;24.70
70550;DHT22;58101;48.658;2.328;2022-08-25T09:31:37;41.90;24.90
70550;DHT22;58101;48.658;2.328;2022-08-25T09:34:06;42.20;24.60
70550;DHT22;58101;48.658;2.328;2022-08-25T09:36:33;42.40;24.60
70550;DHT22;58101;48.658;2.328;2022-08-25T09:38:59;42.50;23.40
70550;DHT22;58101;48.658;2.328;2022-08-25T09:41:40;42.80;23.50
70550;DHT22;58101;48.658;2.328;2022-08-25T09:44:16;43.00;23.60
70550;DHT22;58101;48.658;2.328;2022-08-25T09:47:01;43.20;23.60
70550;DHT22;58101;48.658;2.328;2022-08-25T09:49:37;43.40;22.60
70550;DHT22;58101;48.658;2.328;2022-08-25T09:52:30;43.70;22.10
70550;DHT22;58101;48.658;2.328;2022-08-25T09:55:24;43.80;20.90
70550;DHT22;58101;48.658;2.328;2022-08-25T09:57:53;43.80;21.00
70550;DHT22;58101;48.658;2.328;2022-08-25T10:00:30;44.00;21.60
70550;DHT22;58101;48.658;2.328;2022-08-25T10:03:05;44.20;21.50
70550;DHT22;58101;48.658;2.328;2022-08-25T10:05:34;44.40;21.00
70550;DHT22;58101;48.658;2.328;2022-08-25T10:08:09;44.50;20.40
70550;DHT22;58101;48.658;2.328;2022-08-25T10:10:42;44.60;20.50
70550;DHT22;58101;48.658;2.328;2022-08-25T10:13:18;44.50;19.90
70550;DHT22;58101;48.658;2.328;2022-08-25T10:15:45;44.70;20.40
70550;DHT22;58101;48.658;2.328;2022-08-25T10:18:28;44.60;20.30
70550;DHT22;58101;48.658;2.328;2022-08-25T10:21:07;44.60;20.50
70550;DHT22;58101;48.658;2.328;2022-08-25T10:23:39;44.80;20.00
70550;DHT22;58101;48.658;2.328;2022-08-25T10:26:13;44.80;20.70
70550;DHT22;58101;48.658;2.328;2022-08-25T10:31:35;45.10;20.40
70550;DHT22;58101;48.658;2.328;2022-08-25T10:39:45;45.50;20.50
70550;DHT22;58101;48.658;2.328;2022-08-25T10:42:33;45.60;19.50
70550;DHT22;58101;48.658;2.328;2022-08-25T10:53:24;44.70;18.80
70550;DHT22;58101;48.658;2.328;2022-08-25T11:01:49;44.50;19.70
70550;DHT22;58101;48.658;2.328;2022-08-25T11:04:34;44.50;19.30
70550;DHT22;58101;48.658;2.328;2022-08-25T11:07:28;44.60;19.50
70550;DHT22;58101;48.658;2.328;2022-08-25T11:10:02;44.50;20.20
70550;DHT22;58101;48.658;2.328;2022-08-25T11:12:33;44.60;20.00
70550;DHT22;58101;48.658;2.328;2022-08-25T11:15:14;44.40;19.80
70550;DHT22;58101;48.658;2.328;2022-08-25T11:20:27;44.10;20.50
70550;DHT22;58101;48.658;2.328;2022-08-25T11:23:16;43.80;19.70
70550;DHT22;58101;48.658;2.328;2022-08-25T11:25:46;43.30;20.30
70550;DHT22;58101;48.658;2.328;2022-08-25T11:28:24;42.70;19.70
70550;DHT22;58101;48.658;2.328;2022-08-25T11:30:51;42.00;21.20
70550;DHT22;58101;48.658;2.328;2022-08-25T11:33:23;41.50;21.80
70550;DHT22;58101;48.658;2.328;2022-08-25T11:36:02;41.30;22.60
70550;DHT22;58101;48.658;2.328;2022-08-25T11:38:48;41.10;22.50
70550;DHT22;58101;48.658;2.328;2022-08-25T11:51:59;40.40;22.80
70550;DHT22;58101;48.658;2.328;2022-08-25T11:54:42;40.10;23.40
70550;DHT22;58101;48.658;2.328;2022-08-25T12:10:19;39.30;24.50
70550;DHT22;58101;48.658;2.328;2022-08-25T12:12:59;39.40;25.60
70550;DHT22;58101;48.658;2.328;2022-08-25T12:23:33;38.70;24.90
70550;DHT22;58101;48.658;2.328;2022-08-25T12:31:30;38.70;25.60
70550;DHT22;58101;48.658;2.328;2022-08-25T12:37:03;38.80;26.30
70550;DHT22;58101;48.658;2.328;2022-08-25T12:39:34;38.80;26.40
70550;DHT22;58101;48.658;2.328;2022-08-25T12:42:04;38.70;25.60
70550;DHT22;58101;48.658;2.328;2022-08-25T12:44:42;38.60;26.10
70550;DHT22;58101;48.658;2.328;2022-08-25T12:49:48;38.30;25.10
70550;DHT22;58101;48.658;2.328;2022-08-25T12:52:17;38.10;25.50
70550;DHT22;58101;48.658;2.328;2022-08-25T12:54:54;37.90;25.40
70550;DHT22;58101;48.658;2.328;2022-08-25T12:57:44;37.70;26.60
70550;DHT22;58101;48.658;2.328;2022-08-25T13:00:25;37.50;27.30
70550;DHT22;58101;48.658;2.328;2022-08-25T13:05:34;37.40;27.80
70550;DHT22;58101;48.658;2.328;2022-08-25T13:08:37;37.20;27.70
70550;DHT22;58101;48.658;2.328;2022-08-25T13:11:17;37.00;27.50
70550;DHT22;58101;48.658;2.328;2022-08-25T13:13:50;36.80;27.30
70550;DHT22;58101;48.658;2.328;2022-08-25T13:16:24;36.60;27.90
70550;DHT22;58101;48.658;2.328;2022-08-25T13:18:52;36.40;28.00
70550;DHT22;58101;48.658;2.328;2022-08-25T13:21:41;36.20;28.50
70550;DHT22;58101;48.658;2.328;2022-08-25T13:24:27;36.10;29.30
70550;DHT22;58101;48.658;2.328;2022-08-25T13:27:00;36.20;29.20
70550;DHT22;58101;48.658;2.328;2022-08-25T13:29:31;36.40;29.30
70550;DHT22;58101;48.658;2.328;2022-08-25T13:32:00;36.60;28.80
70550;DHT22;58101;48.658;2.328;2022-08-25T13:34:29;36.70;28.10
70550;DHT22;58101;48.658;2.328;2022-08-25T13:37:01;36.60;27.50
70550;DHT22;58101;48.658;2.328;2022-08-25T13:39:47;36.40;28.40
70550;DHT22;58101;48.658;2.328;2022-08-25T13:42:14;36.10;28.20
70550;DHT22;58101;48.658;2.328;2022-08-25T13:44:42;35.80;28.60
70550;DHT22;58101;48.658;2.328;2022-08-25T13:47:14;35.70;29.00
70550;DHT22;58101;48.658;2.328;2022-08-25T13:49:42;35.60;29.40
70550;DHT22;58101;48.658;2.328;2022-08-25T13:52:26;35.60;29.60
70550;DHT22;58101;48.658;2.328;2022-08-25T13:54:57;35.70;28.90
70550;DHT22;58101;48.658;2.328;2022-08-25T13:57:26;35.80;29.30
70550;DHT22;58101;48.658;2.328;2022-08-25T14:00:01;36.00;29.60
70550;DHT22;58101;48.658;2.328;2022-08-25T14:02:49;36.00;28.90
70550;DHT22;58101;48.658;2.328;2022-08-25T14:05:27;36.00;29.10
70550;DHT22;58101;48.658;2.328;2022-08-25T14:07:54;35.90;29.20
70550;DHT22;58101;48.658;2.328;2022-08-25T14:15:52;35.20;30.00
70550;DHT22;58101;48.658;2.328;2022-08-25T14:18:21;35.10;30.30
70550;DHT22;58101;48.658;2.328;2022-08-25T14:20:51;35.00;30.80
70550;DHT22;58101;48.658;2.328;2022-08-25T14:23:22;34.90;31.00
70550;DHT22;58101;48.658;2.328;2022-08-25T14:25:51;34.90;31.20
70550;DHT22;58101;48.658;2.328;2022-08-25T14:28:22;34.80;31.40
70550;DHT22;58101;48.658;2.328;2022-08-25T14:31:09;34.80;31.50
70550;DHT22;58101;48.658;2.328;2022-08-25T14:33:54;34.70;31.60
70550;DHT22;58101;48.658;2.328;2022-08-25T14:36:21;34.60;31.30
70550;DHT22;58101;48.658;2.328;2022-08-25T14:38:47;34.60;31.70
70550;DHT22;58101;48.658;2.328;2022-08-25T14:41:12;34.50;31.50
70550;DHT22;58101;48.658;2.328;2022-08-25T14:43:38;34.30;32.30
70550;DHT22;58101;48.658;2.328;2022-08-25T14:46:09;34.10;33.10
70550;DHT22;58101;48.658;2.328;2022-08-25T14:48:43;33.90;33.40
70550;DHT22;58101;48.658;2.328;2022-08-25T14:51:11;33.70;34.50
70550;DHT22;58101;48.658;2.328;2022-08-25T14:53:38;33.60;34.50
70550;DHT22;58101;48.658;2.328;2022-08-25T14:56:05;33.50;34.80
70550;DHT22;58101;48.658;2.328;2022-08-25T14:58:31;33.50;35.80
70550;DHT22;58101;48.658;2.328;2022-08-25T15:00:57;33.40;35.70
70550;DHT22;58101;48.658;2.328;2022-08-25T15:03:29;33.40;36.10
70550;DHT22;58101;48.658;2.328;2022-08-25T15:05:55;33.40;36.30
70550;DHT22;58101;48.658;2.328;2022-08-25T15:08:21;33.40;36.70
70550;DHT22;58101;48.658;2.328;2022-08-25T15:11:05;33.30;36.40
70550;DHT22;58101;48.658;2.328;2022-08-25T15:13:31;33.30;36.50
70550;DHT22;58101;48.658;2.328;2022-08-25T15:15:57;33.10;36.70
70550;DHT22;58101;48.658;2.328;2022-08-25T15:18:23;33.00;36.30
70550;DHT22;58101;48.658;2.328;2022-08-25T15:20:50;32.80;36.60
70550;DHT22;58101;48.658;2.328;2022-08-25T15:23:19;32.70;37.20
70550;DHT22;58101;48.658;2.328;2022-08-25T15:25:46;32.60;37.40
70550;DHT22;58101;48.658;2.328;2022-08-25T15:28:48;32.50;37.30
70550;DHT22;58101;48.658;2.328;2022-08-25T15:31:28;32.40;38.00
70550;DHT22;58101;48.658;2.328;2022-08-25T15:33:54;32.40;38.50
70550;DHT22;58101;48.658;2.328;2022-08-25T15:36:24;32.30;37.90
70550;DHT22;58101;48.658;2.328;2022-08-25T15:39:30;32.30;38.30
70550;DHT22;58101;48.658;2.328;2022-08-25T15:42:02;32.20;38.40
70550;DHT22;58101;48.658;2.328;2022-08-25T15:44:28;32.10;38.80
70550;DHT22;58101;48.658;2.328;2022-08-25T15:46:54;32.10;39.00
70550;DHT22;58101;48.658;2.328;2022-08-25T15:49:20;32.10;39.20
70550;DHT22;58101;48.658;2.328;2022-08-25T15:51:46;32.10;39.60
70550;DHT22;58101;48.658;2.328;2022-08-25T15:54:12;32.10;39.00
70550;DHT22;58101;48.658;2.328;2022-08-25T15:56:41;32.20;39.20
70550;DHT22;58101;48.658;2.328;2022-08-25T15:59:08;32.20;38.80
70550;DHT22;58101;48.658;2.328;2022-08-25T16:01:34;32.20;39.00
70550;DHT22;58101;48.658;2.328;2022-08-25T16:04:00;32.20;39.00
70550;DHT22;58101;48.658;2.328;2022-08-25T16:06:26;32.10;38.50
70550;DHT22;58101;48.658;2.328;2022-08-25T16:08:52;32.10;39.00
70550;DHT22;58101;48.658;2.328;2022-08-25T16:11:25;32.00;38.90
70550;DHT22;58101;48.658;2.328;2022-08-25T16:13:51;31.90;39.20
70550;DHT22;58101;48.658;2.328;2022-08-25T16:16:18;31.80;39.50
70550;DHT22;58101;48.658;2.328;2022-08-25T16:18:45;31.70;39.20
70550;DHT22;58101;48.658;2.328;2022-08-25T16:21:13;31.60;39.00
70550;DHT22;58101;48.658;2.328;2022-08-25T16:23:40;31.50;39.30
70550;DHT22;58101;48.658;2.328;2022-08-25T16:26:08;31.40;39.30
70550;DHT22;58101;48.658;2.328;2022-08-25T16:28:35;31.40;39.50
70550;DHT22;58101;48.658;2.328;2022-08-25T16:31:01;31.40;39.50
70550;DHT22;58101;48.658;2.328;2022-08-25T16:33:26;31.40;39.80
70550;DHT22;58101;48.658;2.328;2022-08-25T16:35:52;31.30;40.20
70550;DHT22;58101;48.658;2.328;2022-08-25T16:38:18;31.30;39.90
70550;DHT22;58101;48.658;2.328;2022-08-25T16:40:44;31.20;40.20
70550;DHT22;58101;48.658;2.328;2022-08-25T16:43:10;31.20;39.90
70550;DHT22;58101;48.658;2.328;2022-08-25T16:45:36;31.20;39.70
70550;DHT22;58101;48.658;2.328;2022-08-25T16:48:03;31.20;39.60
70550;DHT22;58101;48.658;2.328;2022-08-25T16:50:30;31.10;39.80
70550;DHT22;58101;48.658;2.328;2022-08-25T16:52:57;31.00;39.60
70550;DHT22;58101;48.658;2.328;2022-08-25T16:55:41;30.90;39.60
70550;DHT22;58101;48.658;2.328;2022-08-25T16:58:08;30.80;39.90
70550;DHT22;58101;48.658;2.328;2022-08-25T17:00:35;30.70;40.30
70550;DHT22;58101;48.658;2.328;2022-08-25T17:03:03;30.60;40.60
70550;DHT22;58101;48.658;2.328;2022-08-25T17:05:31;30.50;40.70
70550;DHT22;58101;48.658;2.328;2022-08-25T17:08:00;30.40;40.60
70550;DHT22;58101;48.658;2.328;2022-08-25T17:10:45;30.30;42.10
70550;DHT22;58101;48.658;2.328;2022-08-25T17:13:11;30.20;41.00
70550;DHT22;58101;48.658;2.328;2022-08-25T17:15:41;30.10;41.60
70550;DHT22;58101;48.658;2.328;2022-08-25T17:18:08;29.90;41.20